sensor_id;sensor_type;location;lat;lon;timestamp;pressure;altitude;pressure_sealevel;temperature;humidity
69836;BME280;57132;51.972;4.450;2022-10-16T00:01:23;100840.25;;;13.70;88.05
69836;BME280;57132;51.972;4.450;2022-10-16T00:03:49;100835.88;;;13.69;88.27
69836;BME280;57132;51.972;4.450;2022-10-16T00:06:17;100831.94;;;13.73;87.86
69836;BME280;57132;51.972;4.450;2022-10-16T00:08:42;100827.06;;;13.78;87.39
69836;BME280;57132;51.972;4.450;2022-10-16T00:11:14;100838.25;;;13.83;86.56
69836;BME280;57132;51.972;4.450;2022-10-16T00:13:41;100826.97;;;13.89;86.41
69836;BME280;57132;51.972;4.450;2022-10-16T00:16:08;100832.50;;;13.88;86.58
69836;BME280;57132;51.972;4.450;2022-10-16T00:18:34;100831.25;;;13.92;86.40
69836;BME280;57132;51.972;4.450;2022-10-16T00:21:04;100829.00;;;13.97;85.39
69836;BME280;57132;51.972;4.450;2022-10-16T00:23:30;100828.50;;;14.03;85.66
69836;BME280;57132;51.972;4.450;2022-10-16T00:25:58;100840.22;;;14.02;86.19
69836;BME280;57132;51.972;4.450;2022-10-16T00:28:24;100829.34;;;14.03;85.58
69836;BME280;57132;51.972;4.450;2022-10-16T00:30:50;100829.09;;;14.07;85.75
69836;BME280;57132;51.972;4.450;2022-10-16T00:33:15;100820.91;;;14.08;86.24
69836;BME280;57132;51.972;4.450;2022-10-16T00:35:40;100820.91;;;14.08;86.50
69836;BME280;57132;51.972;4.450;2022-10-16T00:38:06;100828.25;;;14.06;87.49
69836;BME280;57132;51.972;4.450;2022-10-16T00:40:31;100819.13;;;13.97;88.63
69836;BME280;57132;51.972;4.450;2022-10-16T00:42:57;100821.75;;;13.88;89.50
69836;BME280;57132;51.972;4.450;2022-10-16T00:45:22;100826.78;;;13.81;90.51
69836;BME280;57132;51.972;4.450;2022-10-16T00:47:49;100828.75;;;13.79;91.05
69836;BME280;57132;51.972;4.450;2022-10-16T00:50:31;100819.88;;;13.78;91.20
69836;BME280;57132;51.972;4.450;2022-10-16T00:52:58;100817.22;;;13.67;92.25
69836;BME280;57132;51.972;4.450;2022-10-16T00:55:26;100809.22;;;13.56;93.43
69836;BME280;57132;51.972;4.450;2022-10-16T00:57:53;100823.28;;;13.48;94.60
69836;BME280;57132;51.972;4.450;2022-10-16T01:00:24;100817.56;;;13.42;95.46
69836;BME280;57132;51.972;4.450;2022-10-16T01:02:54;100826.75;;;13.28;97.28
69836;BME280;57132;51.972;4.450;2022-10-16T01:05:22;100843.94;;;13.25;97.85
69836;BME280;57132;51.972;4.450;2022-10-16T01:08:18;100834.41;;;13.21;98.73
69836;BME280;57132;51.972;4.450;2022-10-16T01:11:22;100838.00;;;13.11;99.86
69836;BME280;57132;51.972;4.450;2022-10-16T01:13:55;100828.50;;;13.07;100.00
69836;BME280;57132;51.972;4.450;2022-10-16T01:16:33;100829.69;;;13.02;100.00
69836;BME280;57132;51.972;4.450;2022-10-16T01:21:35;100832.88;;;12.96;100.00
69836;BME280;57132;51.972;4.450;2022-10-16T01:27:18;100845.59;;;12.83;100.00
69836;BME280;57132;51.972;4.450;2022-10-16T01:29:56;100833.50;;;12.77;100.00
69836;BME280;57132;51.972;4.450;2022-10-16T01:32:32;100835.59;;;12.74;100.00
69836;BME280;57132;51.972;4.450;2022-10-16T01:37:39;100849.84;;;12.63;100.00
69836;BME280;57132;51.972;4.450;2022-10-16T01:40:09;100858.59;;;12.54;100.00
69836;BME280;57132;51.972;4.450;2022-10-16T01:42:40;100848.25;;;12.49;100.00
69836;BME280;57132;51.972;4.450;2022-10-16T01:45:07;100847.03;;;12.53;100.00
69836;BME280;57132;51.972;4.450;2022-10-16T01:47:36;100839.00;;;12.53;100.00
69836;BME280;57132;51.972;4.450;2022-10-16T01:50:04;100840.81;;;12.53;100.00
69836;BME280;57132;51.972;4.450;2022-10-16T01:52:32;100836.09;;;12.57;100.00
69836;BME280;57132;51.972;4.450;2022-10-16T01:54:59;100841.31;;;12.58;100.00
69836;BME280;57132;51.972;4.450;2022-10-16T01:57:26;100847.28;;;12.62;100.00
69836;BME280;57132;51.972;4.450;2022-10-16T01:59:57;100853.25;;;12.65;100.00
69836;BME280;57132;51.972;4.450;2022-10-16T02:02:26;100847.88;;;12.65;100.00
69836;BME280;57132;51.972;4.450;2022-10-16T02:04:58;100858.38;;;12.68;100.00
69836;BME280;57132;51.972;4.450;2022-10-16T02:07:27;100851.41;;;12.66;100.00
69836;BME280;57132;51.972;4.450;2022-10-16T02:09:53;100856.75;;;12.66;100.00
69836;BME280;57132;51.972;4.450;2022-10-16T02:12:25;100860.28;;;12.66;100.00
69836;BME280;57132;51.972;4.450;2022-10-16T02:14:52;100857.50;;;12.68;100.00
69836;BME280;57132;51.972;4.450;2022-10-16T02:17:19;100856.28;;;12.72;100.00
69836;BME280;57132;51.972;4.450;2022-10-16T02:19:46;100858.97;;;12.72;100.00
69836;BME280;57132;51.972;4.450;2022-10-16T02:22:20;100853.72;;;12.70;100.00
69836;BME280;57132;51.972;4.450;2022-10-16T02:25:03;100860.44;;;12.76;100.00
69836;BME280;57132;51.972;4.450;2022-10-16T02:27:36;100859.44;;;12.77;100.00
69836;BME280;57132;51.972;4.450;2022-10-16T02:32:34;100859.31;;;12.78;100.00
69836;BME280;57132;51.972;4.450;2022-10-16T02:35:01;100865.78;;;12.76;100.00
69836;BME280;57132;51.972;4.450;2022-10-16T02:37:28;100854.22;;;12.75;100.00
69836;BME280;57132;51.972;4.450;2022-10-16T02:39:54;100862.00;;;12.78;100.00
69836;BME280;57132;51.972;4.450;2022-10-16T02:42:20;100863.81;;;12.78;100.00
69836;BME280;57132;51.972;4.450;2022-10-16T02:44:45;100867.97;;;12.82;100.00
69836;BME280;57132;51.972;4.450;2022-10-16T02:47:11;100858.22;;;12.81;100.00
69836;BME280;57132;51.972;4.450;2022-10-16T02:49:37;100860.91;;;12.81;100.00
69836;BME280;57132;51.972;4.450;2022-10-16T02:52:02;100876.13;;;12.80;100.00
69836;BME280;57132;51.972;4.450;2022-10-16T02:54:27;100853.00;;;12.79;100.00
69836;BME280;57132;51.972;4.450;2022-10-16T02:56:53;100860.06;;;12.80;100.00
69836;BME280;57132;51.972;4.450;2022-10-16T02:59:18;100861.75;;;12.82;100.00
69836;BME280;57132;51.972;4.450;2022-10-16T03:01:43;100856.41;;;12.82;100.00
69836;BME280;57132;51.972;4.450;2022-10-16T03:04:09;100874.31;;;12.81;100.00
69836;BME280;57132;51.972;4.450;2022-10-16T03:06:34;100865.88;;;12.74;100.00
69836;BME280;57132;51.972;4.450;2022-10-16T03:09:00;100867.97;;;12.71;100.00
69836;BME280;57132;51.972;4.450;2022-10-16T03:11:26;100863.34;;;12.73;100.00
69836;BME280;57132;51.972;4.450;2022-10-16T03:13:51;100879.28;;;12.74;100.00
69836;BME280;57132;51.972;4.450;2022-10-16T03:16:17;100874.19;;;12.71;100.00
69836;BME280;57132;51.972;4.450;2022-10-16T03:18:42;100880.63;;;12.69;100.00
69836;BME280;57132;51.972;4.450;2022-10-16T03:21:07;100889.53;;;12.69;100.00
69836;BME280;57132;51.972;4.450;2022-10-16T03:23:32;100883.06;;;12.72;100.00
69836;BME280;57132;51.972;4.450;2022-10-16T03:25:58;100892.31;;;12.68;100.00
69836;BME280;57132;51.972;4.450;2022-10-16T03:28:24;100886.97;;;12.68;100.00
69836;BME280;57132;51.972;4.450;2022-10-16T03:30:49;100897.78;;;12.66;100.00
69836;BME280;57132;51.972;4.450;2022-10-16T03:33:14;100893.19;;;12.68;100.00
69836;BME280;57132;51.972;4.450;2022-10-16T03:35:40;100895.25;;;12.76;100.00
69836;BME280;57132;51.972;4.450;2022-10-16T03:38:05;100890.50;;;12.79;100.00
69836;BME280;57132;51.972;4.450;2022-10-16T03:40:30;100891.22;;;12.82;100.00
69836;BME280;57132;51.972;4.450;2022-10-16T03:42:57;100895.50;;;12.84;100.00
69836;BME280;57132;51.972;4.450;2022-10-16T03:45:23;100897.19;;;12.85;100.00
69836;BME280;57132;51.972;4.450;2022-10-16T03:47:48;100897.81;;;12.89;100.00
69836;BME280;57132;51.972;4.450;2022-10-16T03:50:15;100910.72;;;12.84;100.00
69836;BME280;57132;51.972;4.450;2022-10-16T03:52:40;100918.25;;;12.78;100.00
69836;BME280;57132;51.972;4.450;2022-10-16T03:55:06;100909.13;;;12.81;100.00
69836;BME280;57132;51.972;4.450;2022-10-16T03:57:32;100915.47;;;12.80;100.00
69836;BME280;57132;51.972;4.450;2022-10-16T03:59:57;100915.47;;;12.80;100.00
69836;BME280;57132;51.972;4.450;2022-10-16T04:02:22;100932.16;;;12.84;100.00
69836;BME280;57132;51.972;4.450;2022-10-16T04:04:48;100925.19;;;12.81;100.00
69836;BME280;57132;51.972;4.450;2022-10-16T04:07:13;100924.22;;;12.82;100.00
69836;BME280;57132;51.972;4.450;2022-10-16T04:09:38;100928.97;;;12.78;100.00
69836;BME280;57132;51.972;4.450;2022-10-16T04:12:04;100932.53;;;12.79;100.00
69836;BME280;57132;51.972;4.450;2022-10-16T04:14:29;100928.47;;;12.73;100.00
69836;BME280;57132;51.972;4.450;2022-10-16T04:16:54;100918.84;;;12.71;100.00
69836;BME280;57132;51.972;4.450;2022-10-16T04:19:19;100923.63;;;12.67;100.00
69836;BME280;57132;51.972;4.450;2022-10-16T04:21:45;100934.31;;;12.67;100.00
69836;BME280;57132;51.972;4.450;2022-10-16T04:24:10;100939.31;;;12.61;100.00
69836;BME280;57132;51.972;4.450;2022-10-16T04:26:36;100954.53;;;12.60;100.00
69836;BME280;57132;51.972;4.450;2022-10-16T04:29:02;100951.22;;;12.57;100.00
69836;BME280;57132;51.972;4.450;2022-10-16T04:31:27;100954.88;;;12.55;100.00
69836;BME280;57132;51.972;4.450;2022-10-16T04:33:52;100954.25;;;12.52;100.00
69836;BME280;57132;51.972;4.450;2022-10-16T04:36:18;100956.44;;;12.58;100.00
69836;BME280;57132;51.972;4.450;2022-10-16T04:38:43;100956.56;;;12.57;100.00
69836;BME280;57132;51.972;4.450;2022-10-16T04:41:08;100967.28;;;12.57;100.00
69836;BME280;57132;51.972;4.450;2022-10-16T04:43:34;100972.41;;;12.60;100.00
69836;BME280;57132;51.972;4.450;2022-10-16T04:46:00;100978.97;;;12.67;100.00
69836;BME280;57132;51.972;4.450;2022-10-16T04:48:25;100984.84;;;12.72;100.00
69836;BME280;57132;51.972;4.450;2022-10-16T04:50:51;100996.41;;;12.72;100.00
69836;BME280;57132;51.972;4.450;2022-10-16T04:53:16;100995.19;;;12.76;100.00
69836;BME280;57132;51.972;4.450;2022-10-16T04:55:41;101004.22;;;12.75;100.00
69836;BME280;57132;51.972;4.450;2022-10-16T04:58:07;100996.91;;;12.77;100.00
69836;BME280;57132;51.972;4.450;2022-10-16T05:00:33;100995.06;;;12.78;100.00
69836;BME280;57132;51.972;4.450;2022-10-16T05:02:58;101001.19;;;12.80;100.00
69836;BME280;57132;51.972;4.450;2022-10-16T05:05:27;101004.56;;;12.82;100.00
69836;BME280;57132;51.972;4.450;2022-10-16T05:07:53;100998.50;;;12.80;100.00
69836;BME280;57132;51.972;4.450;2022-10-16T05:10:19;101010.69;;;12.84;100.00
69836;BME280;57132;51.972;4.450;2022-10-16T05:12:44;101005.44;;;12.83;100.00
69836;BME280;57132;51.972;4.450;2022-10-16T05:15:10;101014.44;;;12.82;100.00
69836;BME280;57132;51.972;4.450;2022-10-16T05:17:35;101025.06;;;12.83;100.00
69836;BME280;57132;51.972;4.450;2022-10-16T05:20:01;101021.63;;;12.81;100.00
69836;BME280;57132;51.972;4.450;2022-10-16T05:22:26;101030.75;;;12.78;100.00
69836;BME280;57132;51.972;4.450;2022-10-16T05:24:52;101031.22;;;12.72;100.00
69836;BME280;57132;51.972;4.450;2022-10-16T05:27:17;101036.94;;;12.68;100.00
69836;BME280;57132;51.972;4.450;2022-10-16T05:29:46;101042.88;;;12.60;100.00
69836;BME280;57132;51.972;4.450;2022-10-16T05:32:13;101036.16;;;12.54;100.00
69836;BME280;57132;51.972;4.450;2022-10-16T05:34:38;101046.25;;;12.51;100.00
69836;BME280;57132;51.972;4.450;2022-10-16T05:37:03;101039.31;;;12.48;100.00
69836;BME280;57132;51.972;4.450;2022-10-16T05:39:29;101042.97;;;12.47;100.00
69836;BME280;57132;51.972;4.450;2022-10-16T05:41:54;101045.53;;;12.49;100.00
69836;BME280;57132;51.972;4.450;2022-10-16T05:44:19;101043.47;;;12.52;100.00
69836;BME280;57132;51.972;4.450;2022-10-16T05:46:46;101053.06;;;12.55;100.00
69836;BME280;57132;51.972;4.450;2022-10-16T05:49:11;101050.28;;;12.57;100.00
69836;BME280;57132;51.972;4.450;2022-10-16T05:51:37;101055.44;;;12.60;100.00
69836;BME280;57132;51.972;4.450;2022-10-16T05:54:02;101057.13;;;12.61;100.00
69836;BME280;57132;51.972;4.450;2022-10-16T05:56:27;101053.47;;;12.62;100.00
69836;BME280;57132;51.972;4.450;2022-10-16T05:58:53;101067.47;;;12.65;100.00
69836;BME280;57132;51.972;4.450;2022-10-16T06:01:19;101072.50;;;12.70;100.00
69836;BME280;57132;51.972;4.450;2022-10-16T06:03:45;101064.34;;;12.71;100.00
69836;BME280;57132;51.972;4.450;2022-10-16T06:06:13;101081.28;;;12.72;100.00
69836;BME280;57132;51.972;4.450;2022-10-16T06:08:40;101068.38;;;12.77;100.00
69836;BME280;57132;51.972;4.450;2022-10-16T06:11:08;101067.41;;;12.78;100.00
69836;BME280;57132;51.972;4.450;2022-10-16T06:13:33;101064.34;;;12.71;100.00
69836;BME280;57132;51.972;4.450;2022-10-16T06:16:00;101094.03;;;12.68;100.00
69836;BME280;57132;51.972;4.450;2022-10-16T06:18:27;101078.06;;;12.67;100.00
69836;BME280;57132;51.972;4.450;2022-10-16T06:20:53;101086.84;;;12.69;100.00
69836;BME280;57132;51.972;4.450;2022-10-16T06:23:18;101093.06;;;12.69;100.00
69836;BME280;57132;51.972;4.450;2022-10-16T06:25:43;101094.41;;;12.64;100.00
69836;BME280;57132;51.972;4.450;2022-10-16T06:28:09;101088.41;;;12.60;100.00
69836;BME280;57132;51.972;4.450;2022-10-16T06:30:34;101084.03;;;12.59;100.00
69836;BME280;57132;51.972;4.450;2022-10-16T06:32:59;101094.41;;;12.64;100.00
69836;BME280;57132;51.972;4.450;2022-10-16T06:35:25;101100.81;;;12.61;100.00
69836;BME280;57132;51.972;4.450;2022-10-16T06:37:52;101093.63;;;12.62;100.00
69836;BME280;57132;51.972;4.450;2022-10-16T06:40:18;101096.09;;;12.65;100.00
69836;BME280;57132;51.972;4.450;2022-10-16T06:42:43;101109.47;;;12.65;100.00
69836;BME280;57132;51.972;4.450;2022-10-16T06:45:09;101109.47;;;12.65;100.00
69836;BME280;57132;51.972;4.450;2022-10-16T06:47:34;101131.63;;;12.67;100.00
69836;BME280;57132;51.972;4.450;2022-10-16T06:50:00;101116.31;;;12.69;100.00
69836;BME280;57132;51.972;4.450;2022-10-16T06:52:27;101120.31;;;12.63;100.00
69836;BME280;57132;51.972;4.450;2022-10-16T06:54:53;101126.53;;;12.64;100.00
69836;BME280;57132;51.972;4.450;2022-10-16T06:57:18;101131.03;;;12.63;100.00
69836;BME280;57132;51.972;4.450;2022-10-16T06:59:43;101136.38;;;12.63;100.00
69836;BME280;57132;51.972;4.450;2022-10-16T07:02:09;101144.31;;;12.65;100.00
69836;BME280;57132;51.972;4.450;2022-10-16T07:04:35;101149.88;;;12.62;100.00
69836;BME280;57132;51.972;4.450;2022-10-16T07:07:01;101152.69;;;12.60;100.00
69836;BME280;57132;51.972;4.450;2022-10-16T07:09:26;101172.06;;;12.64;100.00
69836;BME280;57132;51.972;4.450;2022-10-16T07:11:52;101175.25;;;12.69;100.00
69836;BME280;57132;51.972;4.450;2022-10-16T07:14:19;101172.00;;;12.76;100.00
69836;BME280;57132;51.972;4.450;2022-10-16T07:16:45;101166.41;;;12.79;100.00
69836;BME280;57132;51.972;4.450;2022-10-16T07:19:11;101178.47;;;12.85;100.00
69836;BME280;57132;51.972;4.450;2022-10-16T07:21:38;101186.06;;;12.91;100.00
69836;BME280;57132;51.972;4.450;2022-10-16T07:24:06;101187.19;;;13.00;100.00
69836;BME280;57132;51.972;4.450;2022-10-16T07:26:34;101191.34;;;13.04;100.00
69836;BME280;57132;51.972;4.450;2022-10-16T07:29:00;101201.00;;;13.07;100.00
69836;BME280;57132;51.972;4.450;2022-10-16T07:31:26;101200.53;;;13.13;100.00
69836;BME280;57132;51.972;4.450;2022-10-16T07:33:52;101213.69;;;13.16;100.00
69836;BME280;57132;51.972;4.450;2022-10-16T07:36:19;101215.91;;;13.22;100.00
69836;BME280;57132;51.972;4.450;2022-10-16T07:38:45;101222.75;;;13.26;100.00
69836;BME280;57132;51.972;4.450;2022-10-16T07:41:13;101226.69;;;13.33;100.00
69836;BME280;57132;51.972;4.450;2022-10-16T07:43:40;101227.31;;;13.37;100.00
69836;BME280;57132;51.972;4.450;2022-10-16T07:46:06;101232.69;;;13.37;100.00
69836;BME280;57132;51.972;4.450;2022-10-16T07:48:33;101234.16;;;13.41;100.00
69836;BME280;57132;51.972;4.450;2022-10-16T07:51:00;101233.94;;;13.44;100.00
69836;BME280;57132;51.972;4.450;2022-10-16T07:53:27;101240.63;;;13.49;100.00
69836;BME280;57132;51.972;4.450;2022-10-16T07:55:59;101246.25;;;13.58;100.00
69836;BME280;57132;51.972;4.450;2022-10-16T07:58:25;101247.16;;;13.58;100.00
69836;BME280;57132;51.972;4.450;2022-10-16T08:00:50;101245.94;;;13.62;100.00
69836;BME280;57132;51.972;4.450;2022-10-16T08:03:15;101272.41;;;13.67;100.00
69836;BME280;57132;51.972;4.450;2022-10-16T08:05:41;101258.84;;;13.68;100.00
69836;BME280;57132;51.972;4.450;2022-10-16T08:08:06;101265.22;;;13.78;100.00
69836;BME280;57132;51.972;4.450;2022-10-16T08:10:32;101272.06;;;13.83;100.00
69836;BME280;57132;51.972;4.450;2022-10-16T08:12:57;101276.22;;;13.87;100.00
69836;BME280;57132;51.972;4.450;2022-10-16T08:15:23;101288.06;;;13.95;100.00
69836;BME280;57132;51.972;4.450;2022-10-16T08:17:59;101292.09;;;14.01;100.00
69836;BME280;57132;51.972;4.450;2022-10-16T08:20:26;101288.06;;;13.95;100.00
69836;BME280;57132;51.972;4.450;2022-10-16T08:22:52;101294.78;;;14.01;100.00
69836;BME280;57132;51.972;4.450;2022-10-16T08:25:17;101291.63;;;14.07;100.00
69836;BME280;57132;51.972;4.450;2022-10-16T08:27:43;101296.50;;;14.13;100.00
69836;BME280;57132;51.972;4.450;2022-10-16T08:30:09;101307.00;;;14.16;100.00
69836;BME280;57132;51.972;4.450;2022-10-16T08:32:35;101302.00;;;14.12;100.00
69836;BME280;57132;51.972;4.450;2022-10-16T08:35:00;101309.59;;;14.18;100.00
69836;BME280;57132;51.972;4.450;2022-10-16T08:37:30;101308.59;;;14.19;100.00
69836;BME280;57132;51.972;4.450;2022-10-16T08:39:56;101321.66;;;14.23;100.00
69836;BME280;57132;51.972;4.450;2022-10-16T08:42:47;101316.53;;;14.32;100.00
69836;BME280;57132;51.972;4.450;2022-10-16T08:45:33;101325.59;;;14.42;100.00
69836;BME280;57132;51.972;4.450;2022-10-16T08:48:24;101335.47;;;14.41;100.00
69836;BME280;57132;51.972;4.450;2022-10-16T08:50:52;101326.31;;;14.44;100.00
69836;BME280;57132;51.972;4.450;2022-10-16T08:53:25;101343.69;;;14.51;99.80
69836;BME280;57132;51.972;4.450;2022-10-16T08:55:53;101343.44;;;14.54;99.03
69836;BME280;57132;51.972;4.450;2022-10-16T08:58:23;101334.88;;;14.60;99.45
69836;BME280;57132;51.972;4.450;2022-10-16T09:00:56;101344.53;;;14.74;98.95
69836;BME280;57132;51.972;4.450;2022-10-16T09:03:46;101345.16;;;14.78;97.92
69836;BME280;57132;51.972;4.450;2022-10-16T09:16:46;101362.44;;;15.62;93.17
69836;BME280;57132;51.972;4.450;2022-10-16T09:19:24;101356.34;;;15.92;92.06
69836;BME280;57132;51.972;4.450;2022-10-16T09:21:54;101362.63;;;16.44;90.28
69836;BME280;57132;51.972;4.450;2022-10-16T09:24:22;101363.22;;;17.38;86.80
69836;BME280;57132;51.972;4.450;2022-10-16T09:26:49;101364.25;;;18.05;81.51
69836;BME280;57132;51.972;4.450;2022-10-16T09:29:17;101365.94;;;18.15;75.98
69836;BME280;57132;51.972;4.450;2022-10-16T09:31:45;101383.69;;;18.37;76.02
69836;BME280;57132;51.972;4.450;2022-10-16T09:34:32;101379.72;;;18.79;73.39
69836;BME280;57132;51.972;4.450;2022-10-16T09:37:04;101373.97;;;18.91;72.46
69836;BME280;57132;51.972;4.450;2022-10-16T09:39:45;101382.41;;;18.41;73.56
69836;BME280;57132;51.972;4.450;2022-10-16T09:42:15;101381.84;;;17.60;74.48
69836;BME280;57132;51.972;4.450;2022-10-16T09:44:41;101374.84;;;17.19;79.01
69836;BME280;57132;51.972;4.450;2022-10-16T09:47:18;101385.59;;;17.88;80.79
69836;BME280;57132;51.972;4.450;2022-10-16T09:49:58;101385.88;;;18.14;76.89
69836;BME280;57132;51.972;4.450;2022-10-16T09:52:27;101392.94;;;18.25;73.85
69836;BME280;57132;51.972;4.450;2022-10-16T09:54:58;101384.88;;;17.96;73.76
69836;BME280;57132;51.972;4.450;2022-10-16T09:57:24;101392.00;;;18.63;75.08
69836;BME280;57132;51.972;4.450;2022-10-16T09:59:52;101389.91;;;19.22;71.30
69836;BME280;57132;51.972;4.450;2022-10-16T10:02:23;101395.47;;;19.21;69.54
69836;BME280;57132;51.972;4.450;2022-10-16T10:04:53;101401.00;;;19.01;68.52
69836;BME280;57132;51.972;4.450;2022-10-16T10:07:33;101403.81;;;18.62;68.98
69836;BME280;57132;51.972;4.450;2022-10-16T10:10:04;101394.59;;;18.55;70.33
69836;BME280;57132;51.972;4.450;2022-10-16T10:12:31;101400.50;;;17.92;73.18
69836;BME280;57132;51.972;4.450;2022-10-16T10:15:07;101402.09;;;17.16;74.09
69836;BME280;57132;51.972;4.450;2022-10-16T10:17:48;101408.72;;;16.71;78.43
69836;BME280;57132;51.972;4.450;2022-10-16T10:20:24;101411.03;;;16.55;80.01
69836;BME280;57132;51.972;4.450;2022-10-16T10:22:50;101418.75;;;16.69;80.57
69836;BME280;57132;51.972;4.450;2022-10-16T10:30:29;101419.31;;;16.42;80.96
69836;BME280;57132;51.972;4.450;2022-10-16T10:33:20;101422.41;;;16.17;82.36
69836;BME280;57132;51.972;4.450;2022-10-16T10:35:58;101417.94;;;16.27;82.01
69836;BME280;57132;51.972;4.450;2022-10-16T10:41:26;101418.78;;;16.48;79.57
69836;BME280;57132;51.972;4.450;2022-10-16T10:44:21;101427.22;;;16.55;79.14
69836;BME280;57132;51.972;4.450;2022-10-16T10:46:54;101424.78;;;16.52;79.07
69836;BME280;57132;51.972;4.450;2022-10-16T10:58:01;101439.47;;;18.00;67.54
69836;BME280;57132;51.972;4.450;2022-10-16T11:00:42;101439.59;;;17.79;70.95
69836;BME280;57132;51.972;4.450;2022-10-16T11:06:30;101452.00;;;17.41;69.98
69836;BME280;57132;51.972;4.450;2022-10-16T11:11:37;101463.91;;;16.98;70.88
69836;BME280;57132;51.972;4.450;2022-10-16T11:16:40;101457.75;;;17.17;68.46
69836;BME280;57132;51.972;4.450;2022-10-16T11:22:12;101469.22;;;17.50;70.39
69836;BME280;57132;51.972;4.450;2022-10-16T11:27:14;101475.66;;;17.58;68.31
69836;BME280;57132;51.972;4.450;2022-10-16T11:29:49;101478.13;;;17.31;70.02
69836;BME280;57132;51.972;4.450;2022-10-16T11:32:30;101481.03;;;17.18;69.68
69836;BME280;57132;51.972;4.450;2022-10-16T11:35:17;101481.09;;;16.97;70.61
69836;BME280;57132;51.972;4.450;2022-10-16T11:37:46;101481.81;;;16.99;71.97
69836;BME280;57132;51.972;4.450;2022-10-16T11:40:22;101486.25;;;17.10;71.88
69836;BME280;57132;51.972;4.450;2022-10-16T11:42:54;101480.06;;;17.19;71.99
69836;BME280;57132;51.972;4.450;2022-10-16T11:45:36;101480.09;;;17.29;69.99
69836;BME280;57132;51.972;4.450;2022-10-16T11:48:15;101484.13;;;17.44;68.84
69836;BME280;57132;51.972;4.450;2022-10-16T11:50:56;101482.69;;;17.50;66.36
69836;BME280;57132;51.972;4.450;2022-10-16T11:56:18;101496.28;;;17.29;64.85
69836;BME280;57132;51.972;4.450;2022-10-16T11:58:52;101496.63;;;17.14;66.76
69836;BME280;57132;51.972;4.450;2022-10-16T12:01:33;101500.78;;;17.18;66.38
69836;BME280;57132;51.972;4.450;2022-10-16T12:07:10;101502.88;;;17.45;62.56
69836;BME280;57132;51.972;4.450;2022-10-16T12:09:39;101506.13;;;17.39;62.57
69836;BME280;57132;51.972;4.450;2022-10-16T12:12:22;101502.22;;;17.23;62.97
69836;BME280;57132;51.972;4.450;2022-10-16T12:14:48;101504.28;;;17.09;63.93
69836;BME280;57132;51.972;4.450;2022-10-16T12:17:44;101507.13;;;17.08;64.71
69836;BME280;57132;51.972;4.450;2022-10-16T12:27:56;101509.41;;;17.43;66.79
69836;BME280;57132;51.972;4.450;2022-10-16T12:30:23;101513.66;;;17.45;66.04
69836;BME280;57132;51.972;4.450;2022-10-16T12:32:54;101508.59;;;17.62;67.65
69836;BME280;57132;51.972;4.450;2022-10-16T12:35:23;101507.31;;;17.56;66.68
69836;BME280;57132;51.972;4.450;2022-10-16T12:37:50;101518.31;;;17.34;63.99
69836;BME280;57132;51.972;4.450;2022-10-16T12:40:26;101517.78;;;17.40;66.17
69836;BME280;57132;51.972;4.450;2022-10-16T12:42:52;101519.78;;;17.48;64.21
69836;BME280;57132;51.972;4.450;2022-10-16T12:47:57;101521.97;;;17.73;60.79
69836;BME280;57132;51.972;4.450;2022-10-16T12:50:43;101518.91;;;17.78;60.20
69836;BME280;57132;51.972;4.450;2022-10-16T12:53:21;101516.91;;;17.80;60.45
69836;BME280;57132;51.972;4.450;2022-10-16T12:55:57;101522.75;;;17.75;60.41
69836;BME280;57132;51.972;4.450;2022-10-16T13:00:58;101515.78;;;17.42;62.09
69836;BME280;57132;51.972;4.450;2022-10-16T13:20:18;101532.63;;;16.41;64.56
69836;BME280;57132;51.972;4.450;2022-10-16T13:25:48;101542.31;;;16.43;65.60
69836;BME280;57132;51.972;4.450;2022-10-16T13:28:21;101537.88;;;16.42;66.93
69836;BME280;57132;51.972;4.450;2022-10-16T13:30:55;101536.41;;;16.38;67.10
69836;BME280;57132;51.972;4.450;2022-10-16T13:33:33;101535.72;;;16.36;69.12
69836;BME280;57132;51.972;4.450;2022-10-16T13:36:01;101536.91;;;16.43;67.87
69836;BME280;57132;51.972;4.450;2022-10-16T13:38:28;101548.66;;;16.42;69.27
69836;BME280;57132;51.972;4.450;2022-10-16T13:43:25;101545.56;;;16.47;72.09
69836;BME280;57132;51.972;4.450;2022-10-16T13:45:59;101546.09;;;16.41;72.36
69836;BME280;57132;51.972;4.450;2022-10-16T13:48:25;101548.78;;;16.41;73.20
69836;BME280;57132;51.972;4.450;2022-10-16T13:51:26;101544.25;;;16.41;73.96
69836;BME280;57132;51.972;4.450;2022-10-16T13:53:52;101536.16;;;16.41;74.65
69836;BME280;57132;51.972;4.450;2022-10-16T13:56:21;101533.88;;;16.37;74.90
69836;BME280;57132;51.972;4.450;2022-10-16T14:01:31;101538.38;;;16.47;75.65
69836;BME280;57132;51.972;4.450;2022-10-16T14:04:10;101531.44;;;16.55;74.79
69836;BME280;57132;51.972;4.450;2022-10-16T14:06:41;101539.03;;;16.61;75.71
69836;BME280;57132;51.972;4.450;2022-10-16T14:09:08;101531.94;;;16.60;76.29
69836;BME280;57132;51.972;4.450;2022-10-16T14:11:44;101537.63;;;16.45;73.44
69836;BME280;57132;51.972;4.450;2022-10-16T14:14:12;101536.13;;;16.53;74.83
69836;BME280;57132;51.972;4.450;2022-10-16T14:16:40;101530.28;;;16.47;73.65
69836;BME280;57132;51.972;4.450;2022-10-16T14:21:40;101542.88;;;16.47;74.54
69836;BME280;57132;51.972;4.450;2022-10-16T14:24:13;101540.56;;;16.42;73.80
69836;BME280;57132;51.972;4.450;2022-10-16T14:26:44;101533.41;;;16.32;74.07
69836;BME280;57132;51.972;4.450;2022-10-16T14:29:12;101535.38;;;16.30;74.88
69836;BME280;57132;51.972;4.450;2022-10-16T14:31:39;101539.03;;;16.29;75.50